Date,TemperatureHighF,TemperatureAvgF,TemperatureLowF,DewpointHighF,DewpointAvgF,DewpointLowF,HumidityHigh,HumidityAvg,HumidityLow,PressureMaxIn,PressureMinIn,WindSpeedMaxMPH,WindSpeedAvgMPH,GustSpeedMaxMPH,PrecipitationSumIn
2013-1-1,27.6,17.3,8.7,10.6,1.8,-3.8,81,53,31,30.67,30.53,29,6,29,0.00
2013-1-2,31.0,19.5,11.4,7.1,-1.0,-5.8,51,40,27,30.77,30.58,25,6,28,0.00
2013-1-3,40.4,20.9,6.9,6.2,-2.8,-9.0,49,36,21,30.79,30.69,10,1,12,0.00
2013-1-4,49.4,31.5,19.7,14.6,6.9,-1.8,49,36,22,30.70,30.39,12,1,13,0.00
2013-1-5,41.5,28.6,20.6,13.4,4.1,-5.2,53,35,20,30.66,30.39,29,4,36,0.00
2013-1-6,56.4,37.0,21.6,7.5,-3.6,-12.3,24,18,9,30.64,30.19,19,2,23,0.00
2013-1-7,54.1,41.3,31.1,9.7,1.1,-11.7,29,19,10,30.19,29.99,38,7,39,0.00
2013-1-8,39.1,35.2,31.3,17.0,11.9,-4.4,47,38,16,30.49,29.95,46,22,52,0.00
2013-1-9,60.3,43.0,31.7,20.7,13.0,4.7,41,30,17,30.58,30.19,25,4,31,0.00
2013-1-10,53.2,40.3,32.0,10.5,4.4,1.2,31,22,13,30.20,29.64,21,3,23,0.00
2013-1-11,39.9,25.5,11.3,19.9,1.6,-10.9,69,36,23,30.07,29.43,48,14,51,0.00
2013-1-12,17.5,8.4,-4.2,2.5,-5.6,-13.1,79,54,34,30.56,30.06,31,6,40,0.00
2013-1-13,10.8,1.6,-5.6,0.4,-5.1,-11.8,79,73,57,30.80,30.55,15,2,15,0.00
2013-1-14,14.6,4.6,-7.7,5.8,-3.4,-13.8,79,69,40,30.84,30.71,26,3,27,0.00
2013-1-15,29.5,23.2,5.9,11.8,3.2,-14.5,48,41,35,30.76,30.64,21,2,26,0.00
2013-1-16,50.8,35.4,23.6,20.4,14.6,8.8,64,43,29,30.66,30.52,15,2,18,0.00
2013-1-17,51.8,41.0,21.6,18.1,13.0,2.9,64,33,20,30.76,30.51,34,4,39,0.00
2013-1-18,47.6,41.1,36.8,6.3,4.1,2.0,25,21,16,30.51,30.25,46,23,50,0.00
2013-1-19,53.5,41.4,34.7,5.8,3.3,-1.1,26,21,13,30.47,30.27,43,17,48,0.00
2013-1-20,47.1,36.9,19.0,12.5,5.2,-0.8,61,27,16,30.47,30.30,40,11,45,0.00
2013-1-21,46.2,38.0,32.5,11.1,5.5,-0.6,31,26,18,30.47,30.32,46,22,50,0.00
2013-1-22,57.3,46.3,39.2,0.4,-4.3,-13.4,18,12,7,30.36,30.22,47,19,52,0.00
2013-1-23,59.2,49.8,44.0,2.9,-3.5,-16.3,17,11,6,30.33,30.22,35,11,46,0.00
2013-1-24,53.2,46.1,39.0,25.5,10.0,-2.0,50,25,14,30.26,30.06,47,15,51,0.00
2013-1-25,49.2,43.0,34.3,27.1,24.2,20.9,64,47,39,30.30,30.21,36,11,37,0.00
2013-1-26,53.7,43.2,32.6,31.5,24.5,20.4,90,49,32,30.25,29.89,29,6,38,0.04
2013-1-27,51.8,40.0,31.6,31.8,25.8,14.0,92,61,31,30.00,29.86,33,5,33,0.00
2013-1-28,45.6,33.0,19.8,26.7,18.5,11.9,91,58,33,29.97,29.76,23,3,24,0.00
2013-1-29,26.7,17.8,7.4,17.5,2.8,-5.7,90,54,30,30.40,29.95,27,8,28,0.07
2013-1-30,28.7,20.8,8.3,14.1,4.3,-6.4,60,49,37,30.40,30.26,46,14,61,0.00
2013-1-31,38.2,31.3,27.3,19.7,14.7,10.6,66,50,41,30.47,30.26,46,17,49,0.01